sensor_id;sensor_type;location;lat;lon;timestamp;temperature;humidity
70726;DHT22;58304;53.104;6.022;2023-02-12T00:02:21;3.60;99.90
70726;DHT22;58304;53.104;6.022;2023-02-12T00:04:46;3.50;99.90
70726;DHT22;58304;53.104;6.022;2023-02-12T00:07:12;3.50;99.90
70726;DHT22;58304;53.104;6.022;2023-02-12T00:09:38;3.50;99.90
70726;DHT22;58304;53.104;6.022;2023-02-12T00:12:06;3.50;99.90
70726;DHT22;58304;53.104;6.022;2023-02-12T00:14:32;3.50;99.90
70726;DHT22;58304;53.104;6.022;2023-02-12T00:16:59;3.60;99.90
70726;DHT22;58304;53.104;6.022;2023-02-12T00:19:24;3.60;99.90
70726;DHT22;58304;53.104;6.022;2023-02-12T00:21:50;3.60;99.90
70726;DHT22;58304;53.104;6.022;2023-02-12T00:24:15;3.60;99.90
70726;DHT22;58304;53.104;6.022;2023-02-12T00:26:43;3.60;99.90
70726;DHT22;58304;53.104;6.022;2023-02-12T00:29:09;3.60;99.90
70726;DHT22;58304;53.104;6.022;2023-02-12T00:31:34;3.60;99.90
70726;DHT22;58304;53.104;6.022;2023-02-12T00:34:02;3.60;99.90
70726;DHT22;58304;53.104;6.022;2023-02-12T00:36:31;3.60;99.90
70726;DHT22;58304;53.104;6.022;2023-02-12T00:38:57;3.60;99.90
70726;DHT22;58304;53.104;6.022;2023-02-12T00:41:23;3.70;99.90
70726;DHT22;58304;53.104;6.022;2023-02-12T00:43:49;3.70;99.90
70726;DHT22;58304;53.104;6.022;2023-02-12T00:46:14;3.70;99.90
70726;DHT22;58304;53.104;6.022;2023-02-12T00:48:40;3.80;99.90
70726;DHT22;58304;53.104;6.022;2023-02-12T00:51:06;3.90;99.90
70726;DHT22;58304;53.104;6.022;2023-02-12T00:53:31;3.80;99.90
70726;DHT22;58304;53.104;6.022;2023-02-12T00:55:57;3.80;99.90
70726;DHT22;58304;53.104;6.022;2023-02-12T00:58:23;3.90;99.90
70726;DHT22;58304;53.104;6.022;2023-02-12T01:00:48;3.80;99.90
70726;DHT22;58304;53.104;6.022;2023-02-12T01:03:16;3.80;99.90
70726;DHT22;58304;53.104;6.022;2023-02-12T01:05:42;3.80;99.90
70726;DHT22;58304;53.104;6.022;2023-02-12T01:08:09;3.90;99.90
70726;DHT22;58304;53.104;6.022;2023-02-12T01:10:36;3.90;99.90
70726;DHT22;58304;53.104;6.022;2023-02-12T01:13:01;3.90;99.90
70726;DHT22;58304;53.104;6.022;2023-02-12T01:15:27;4.00;99.90
70726;DHT22;58304;53.104;6.022;2023-02-12T01:17:52;4.00;99.90
70726;DHT22;58304;53.104;6.022;2023-02-12T01:20:21;4.00;99.90
70726;DHT22;58304;53.104;6.022;2023-02-12T01:22:47;4.10;99.90
70726;DHT22;58304;53.104;6.022;2023-02-12T01:25:13;4.10;99.90
70726;DHT22;58304;53.104;6.022;2023-02-12T01:27:38;4.10;99.90
70726;DHT22;58304;53.104;6.022;2023-02-12T01:30:04;4.10;99.90
70726;DHT22;58304;53.104;6.022;2023-02-12T01:32:31;4.10;99.90
70726;DHT22;58304;53.104;6.022;2023-02-12T01:34:56;4.00;99.90
70726;DHT22;58304;53.104;6.022;2023-02-12T01:37:22;4.10;99.90
70726;DHT22;58304;53.104;6.022;2023-02-12T01:39:47;4.20;99.90
70726;DHT22;58304;53.104;6.022;2023-02-12T01:42:13;3.90;99.90
70726;DHT22;58304;53.104;6.022;2023-02-12T01:44:44;4.00;99.90
70726;DHT22;58304;53.104;6.022;2023-02-12T01:47:11;3.90;99.90
70726;DHT22;58304;53.104;6.022;2023-02-12T01:49:40;3.90;99.90
70726;DHT22;58304;53.104;6.022;2023-02-12T01:52:07;3.90;99.90
70726;DHT22;58304;53.104;6.022;2023-02-12T01:54:34;3.90;99.90
70726;DHT22;58304;53.104;6.022;2023-02-12T01:57:00;3.80;99.90
70726;DHT22;58304;53.104;6.022;2023-02-12T01:59:27;3.80;99.90
70726;DHT22;58304;53.104;6.022;2023-02-12T02:01:53;3.80;99.90
70726;DHT22;58304;53.104;6.022;2023-02-12T02:04:20;3.80;99.90
70726;DHT22;58304;53.104;6.022;2023-02-12T02:06:48;3.80;99.90
70726;DHT22;58304;53.104;6.022;2023-02-12T02:09:15;3.70;99.90
70726;DHT22;58304;53.104;6.022;2023-02-12T02:11:40;3.70;99.90
70726;DHT22;58304;53.104;6.022;2023-02-12T02:14:25;3.80;99.90
70726;DHT22;58304;53.104;6.022;2023-02-12T02:17:15;3.80;99.90
70726;DHT22;58304;53.104;6.022;2023-02-12T02:22:36;3.80;99.90
70726;DHT22;58304;53.104;6.022;2023-02-12T02:25:10;3.80;99.90
70726;DHT22;58304;53.104;6.022;2023-02-12T02:27:41;3.80;99.90
70726;DHT22;58304;53.104;6.022;2023-02-12T02:30:31;3.80;99.90
70726;DHT22;58304;53.104;6.022;2023-02-12T02:33:09;3.80;99.90
70726;DHT22;58304;53.104;6.022;2023-02-12T02:38:09;3.80;99.90
70726;DHT22;58304;53.104;6.022;2023-02-12T02:40:48;3.80;99.90
70726;DHT22;58304;53.104;6.022;2023-02-12T02:43:24;3.90;99.90
70726;DHT22;58304;53.104;6.022;2023-02-12T02:45:54;3.80;99.90
70726;DHT22;58304;53.104;6.022;2023-02-12T02:48:23;3.80;99.90
70726;DHT22;58304;53.104;6.022;2023-02-12T02:50:51;3.80;99.90
70726;DHT22;58304;53.104;6.022;2023-02-12T02:53:21;3.90;99.90
70726;DHT22;58304;53.104;6.022;2023-02-12T02:55:52;3.90;99.90
70726;DHT22;58304;53.104;6.022;2023-02-12T02:58:22;3.90;99.90
70726;DHT22;58304;53.104;6.022;2023-02-12T03:01:00;3.90;99.90
70726;DHT22;58304;53.104;6.022;2023-02-12T03:03:37;3.90;99.90
70726;DHT22;58304;53.104;6.022;2023-02-12T03:06:06;3.90;99.90
70726;DHT22;58304;53.104;6.022;2023-02-12T03:08:35;4.00;99.90
70726;DHT22;58304;53.104;6.022;2023-02-12T03:11:04;4.00;99.90
70726;DHT22;58304;53.104;6.022;2023-02-12T03:13:36;4.00;99.90
70726;DHT22;58304;53.104;6.022;2023-02-12T03:16:08;4.00;99.90
70726;DHT22;58304;53.104;6.022;2023-02-12T03:18:36;4.00;99.90
70726;DHT22;58304;53.104;6.022;2023-02-12T03:21:06;4.00;99.90
70726;DHT22;58304;53.104;6.022;2023-02-12T03:23:36;4.10;99.90
70726;DHT22;58304;53.104;6.022;2023-02-12T03:26:04;4.00;99.90
70726;DHT22;58304;53.104;6.022;2023-02-12T03:28:31;4.10;99.90
70726;DHT22;58304;53.104;6.022;2023-02-12T03:31:11;4.00;99.90
70726;DHT22;58304;53.104;6.022;2023-02-12T03:38:41;4.10;99.90
70726;DHT22;58304;53.104;6.022;2023-02-12T03:43:54;4.10;99.90
70726;DHT22;58304;53.104;6.022;2023-02-12T03:49:09;4.10;99.90
70726;DHT22;58304;53.104;6.022;2023-02-12T03:51:39;4.10;99.90
70726;DHT22;58304;53.104;6.022;2023-02-12T03:54:06;4.00;99.90
70726;DHT22;58304;53.104;6.022;2023-02-12T03:56:40;4.00;99.90
70726;DHT22;58304;53.104;6.022;2023-02-12T03:59:07;4.00;99.90
70726;DHT22;58304;53.104;6.022;2023-02-12T04:01:32;4.00;99.90
70726;DHT22;58304;53.104;6.022;2023-02-12T04:03:58;4.00;99.90
70726;DHT22;58304;53.104;6.022;2023-02-12T04:06:27;4.00;99.90
70726;DHT22;58304;53.104;6.022;2023-02-12T04:08:55;4.00;99.90
70726;DHT22;58304;53.104;6.022;2023-02-12T04:12:06;4.10;99.90
70726;DHT22;58304;53.104;6.022;2023-02-12T04:17:14;4.10;99.90
70726;DHT22;58304;53.104;6.022;2023-02-12T04:27:43;4.00;99.90
70726;DHT22;58304;53.104;6.022;2023-02-12T04:30:33;4.10;99.90
70726;DHT22;58304;53.104;6.022;2023-02-12T04:32:59;4.00;99.90
70726;DHT22;58304;53.104;6.022;2023-02-12T04:38:31;4.00;99.90
70726;DHT22;58304;53.104;6.022;2023-02-12T04:40:57;4.00;99.90
70726;DHT22;58304;53.104;6.022;2023-02-12T04:43:31;4.00;99.90
70726;DHT22;58304;53.104;6.022;2023-02-12T04:45:59;4.00;99.90
70726;DHT22;58304;53.104;6.022;2023-02-12T04:48:24;4.00;99.90
70726;DHT22;58304;53.104;6.022;2023-02-12T04:50:50;4.00;99.90
70726;DHT22;58304;53.104;6.022;2023-02-12T04:53:15;4.00;99.90
70726;DHT22;58304;53.104;6.022;2023-02-12T04:55:41;3.90;99.90
70726;DHT22;58304;53.104;6.022;2023-02-12T04:58:07;3.90;99.90
70726;DHT22;58304;53.104;6.022;2023-02-12T05:00:32;3.90;99.90
70726;DHT22;58304;53.104;6.022;2023-02-12T05:02:58;3.90;99.90
70726;DHT22;58304;53.104;6.022;2023-02-12T05:05:23;3.90;99.90
70726;DHT22;58304;53.104;6.022;2023-02-12T05:07:49;3.90;99.90
70726;DHT22;58304;53.104;6.022;2023-02-12T05:10:14;3.90;99.90
70726;DHT22;58304;53.104;6.022;2023-02-12T05:12:40;3.80;99.90
70726;DHT22;58304;53.104;6.022;2023-02-12T05:15:06;3.80;99.90
70726;DHT22;58304;53.104;6.022;2023-02-12T05:17:31;3.70;99.90
70726;DHT22;58304;53.104;6.022;2023-02-12T05:19:57;3.70;99.90
70726;DHT22;58304;53.104;6.022;2023-02-12T05:22:22;3.70;99.90
70726;DHT22;58304;53.104;6.022;2023-02-12T05:24:48;3.70;99.90
70726;DHT22;58304;53.104;6.022;2023-02-12T05:27:13;3.60;99.90
70726;DHT22;58304;53.104;6.022;2023-02-12T05:29:39;3.60;99.90
70726;DHT22;58304;53.104;6.022;2023-02-12T05:32:05;3.60;99.90
70726;DHT22;58304;53.104;6.022;2023-02-12T05:34:31;3.60;99.90
70726;DHT22;58304;53.104;6.022;2023-02-12T05:36:56;3.60;99.90
70726;DHT22;58304;53.104;6.022;2023-02-12T05:39:22;3.60;99.90
70726;DHT22;58304;53.104;6.022;2023-02-12T05:41:48;3.60;99.90
70726;DHT22;58304;53.104;6.022;2023-02-12T05:44:13;3.50;99.90
70726;DHT22;58304;53.104;6.022;2023-02-12T05:46:41;3.50;99.90
70726;DHT22;58304;53.104;6.022;2023-02-12T05:49:08;3.50;99.90
70726;DHT22;58304;53.104;6.022;2023-02-12T05:51:33;3.50;99.90
70726;DHT22;58304;53.104;6.022;2023-02-12T05:54:00;3.50;99.90
70726;DHT22;58304;53.104;6.022;2023-02-12T05:56:29;3.50;99.90
70726;DHT22;58304;53.104;6.022;2023-02-12T05:59:05;3.50;99.90
70726;DHT22;58304;53.104;6.022;2023-02-12T06:01:32;3.50;99.90
70726;DHT22;58304;53.104;6.022;2023-02-12T06:03:59;3.50;99.90
70726;DHT22;58304;53.104;6.022;2023-02-12T06:06:25;3.50;99.90
70726;DHT22;58304;53.104;6.022;2023-02-12T06:08:51;3.60;99.90
70726;DHT22;58304;53.104;6.022;2023-02-12T06:11:17;3.60;99.90
70726;DHT22;58304;53.104;6.022;2023-02-12T06:13:43;3.60;99.90
70726;DHT22;58304;53.104;6.022;2023-02-12T06:16:22;3.70;99.90
70726;DHT22;58304;53.104;6.022;2023-02-12T06:18:48;3.60;99.90
70726;DHT22;58304;53.104;6.022;2023-02-12T06:21:14;3.70;99.90
70726;DHT22;58304;53.104;6.022;2023-02-12T06:23:40;3.70;99.90
70726;DHT22;58304;53.104;6.022;2023-02-12T06:26:06;3.70;99.90
70726;DHT22;58304;53.104;6.022;2023-02-12T06:28:31;3.80;99.90
70726;DHT22;58304;53.104;6.022;2023-02-12T06:30:57;3.80;99.90
70726;DHT22;58304;53.104;6.022;2023-02-12T06:33:22;3.80;99.90
70726;DHT22;58304;53.104;6.022;2023-02-12T06:35:48;4.00;99.90
70726;DHT22;58304;53.104;6.022;2023-02-12T06:38:13;3.80;99.90
70726;DHT22;58304;53.104;6.022;2023-02-12T06:40:39;3.80;99.90
70726;DHT22;58304;53.104;6.022;2023-02-12T06:43:05;3.90;99.90
70726;DHT22;58304;53.104;6.022;2023-02-12T06:45:30;4.00;99.90
70726;DHT22;58304;53.104;6.022;2023-02-12T06:47:57;4.00;99.90
70726;DHT22;58304;53.104;6.022;2023-02-12T06:50:22;4.00;99.90
70726;DHT22;58304;53.104;6.022;2023-02-12T06:52:48;4.00;99.90
70726;DHT22;58304;53.104;6.022;2023-02-12T06:55:14;4.00;99.90
70726;DHT22;58304;53.104;6.022;2023-02-12T06:57:42;4.10;99.90
70726;DHT22;58304;53.104;6.022;2023-02-12T07:00:08;4.00;99.90
70726;DHT22;58304;53.104;6.022;2023-02-12T07:02:33;4.10;99.90
70726;DHT22;58304;53.104;6.022;2023-02-12T07:04:59;4.10;99.90
70726;DHT22;58304;53.104;6.022;2023-02-12T07:07:24;4.20;99.90
70726;DHT22;58304;53.104;6.022;2023-02-12T07:09:50;4.20;99.90
70726;DHT22;58304;53.104;6.022;2023-02-12T07:12:15;4.20;99.90
70726;DHT22;58304;53.104;6.022;2023-02-12T07:14:41;4.30;99.90
70726;DHT22;58304;53.104;6.022;2023-02-12T07:17:06;4.30;99.90
70726;DHT22;58304;53.104;6.022;2023-02-12T07:19:34;4.30;99.90
70726;DHT22;58304;53.104;6.022;2023-02-12T07:22:00;4.40;99.90
70726;DHT22;58304;53.104;6.022;2023-02-12T07:24:25;5.00;99.90
70726;DHT22;58304;53.104;6.022;2023-02-12T07:26:51;4.40;99.90
70726;DHT22;58304;53.104;6.022;2023-02-12T07:29:16;4.40;99.90
70726;DHT22;58304;53.104;6.022;2023-02-12T07:31:42;4.50;99.90
70726;DHT22;58304;53.104;6.022;2023-02-12T07:34:08;4.50;99.90
70726;DHT22;58304;53.104;6.022;2023-02-12T07:36:33;4.50;99.90
70726;DHT22;58304;53.104;6.022;2023-02-12T07:38:59;4.50;99.90
70726;DHT22;58304;53.104;6.022;2023-02-12T07:41:27;4.60;99.90
70726;DHT22;58304;53.104;6.022;2023-02-12T07:43:54;4.60;99.90
70726;DHT22;58304;53.104;6.022;2023-02-12T07:46:21;4.60;99.90
70726;DHT22;58304;53.104;6.022;2023-02-12T07:48:47;4.70;99.90
70726;DHT22;58304;53.104;6.022;2023-02-12T07:51:13;4.70;99.90
70726;DHT22;58304;53.104;6.022;2023-02-12T07:53:39;4.70;99.90
70726;DHT22;58304;53.104;6.022;2023-02-12T07:56:09;4.80;99.90
70726;DHT22;58304;53.104;6.022;2023-02-12T07:58:40;4.80;99.90
70726;DHT22;58304;53.104;6.022;2023-02-12T08:03:38;4.90;99.90
70726;DHT22;58304;53.104;6.022;2023-02-12T08:06:14;5.00;99.90
70726;DHT22;58304;53.104;6.022;2023-02-12T08:08:40;5.00;99.90
70726;DHT22;58304;53.104;6.022;2023-02-12T08:11:06;5.10;99.90
70726;DHT22;58304;53.104;6.022;2023-02-12T08:13:32;5.10;99.90
70726;DHT22;58304;53.104;6.022;2023-02-12T08:16:02;5.20;99.90
70726;DHT22;58304;53.104;6.022;2023-02-12T08:18:28;5.20;99.90
70726;DHT22;58304;53.104;6.022;2023-02-12T08:20:54;5.30;99.90
70726;DHT22;58304;53.104;6.022;2023-02-12T08:23:19;5.30;99.90
70726;DHT22;58304;53.104;6.022;2023-02-12T08:25:45;5.40;99.90
70726;DHT22;58304;53.104;6.022;2023-02-12T08:28:10;5.50;99.90
70726;DHT22;58304;53.104;6.022;2023-02-12T08:30:36;5.50;99.90
70726;DHT22;58304;53.104;6.022;2023-02-12T08:33:36;5.60;99.90
70726;DHT22;58304;53.104;6.022;2023-02-12T08:38:27;5.70;99.90
70726;DHT22;58304;53.104;6.022;2023-02-12T08:40:52;5.80;99.90
70726;DHT22;58304;53.104;6.022;2023-02-12T08:43:18;5.80;99.90
70726;DHT22;58304;53.104;6.022;2023-02-12T08:45:44;5.90;99.90
70726;DHT22;58304;53.104;6.022;2023-02-12T08:48:09;5.90;99.90
70726;DHT22;58304;53.104;6.022;2023-02-12T08:50:35;6.00;99.90
70726;DHT22;58304;53.104;6.022;2023-02-12T08:53:00;6.00;99.90
70726;DHT22;58304;53.104;6.022;2023-02-12T08:55:26;6.10;99.90
70726;DHT22;58304;53.104;6.022;2023-02-12T08:57:52;6.20;99.90
70726;DHT22;58304;53.104;6.022;2023-02-12T09:00:22;6.30;99.90
70726;DHT22;58304;53.104;6.022;2023-02-12T09:02:49;6.50;99.90
70726;DHT22;58304;53.104;6.022;2023-02-12T09:05:14;6.60;99.90
70726;DHT22;58304;53.104;6.022;2023-02-12T09:07:40;6.70;99.90
70726;DHT22;58304;53.104;6.022;2023-02-12T09:10:06;6.80;99.90
70726;DHT22;58304;53.104;6.022;2023-02-12T09:12:31;6.90;99.90
70726;DHT22;58304;53.104;6.022;2023-02-12T09:14:57;6.90;99.90
70726;DHT22;58304;53.104;6.022;2023-02-12T09:17:24;7.00;99.90
70726;DHT22;58304;53.104;6.022;2023-02-12T09:19:52;7.00;99.90
70726;DHT22;58304;53.104;6.022;2023-02-12T09:22:18;7.00;99.90
70726;DHT22;58304;53.104;6.022;2023-02-12T09:24:43;7.10;99.90
70726;DHT22;58304;53.104;6.022;2023-02-12T09:27:09;7.20;99.90
70726;DHT22;58304;53.104;6.022;2023-02-12T09:29:34;7.30;99.90
70726;DHT22;58304;53.104;6.022;2023-02-12T09:32:00;7.50;99.90
70726;DHT22;58304;53.104;6.022;2023-02-12T09:34:33;7.60;99.90
70726;DHT22;58304;53.104;6.022;2023-02-12T09:36:59;7.60;99.90
70726;DHT22;58304;53.104;6.022;2023-02-12T09:39:24;7.70;99.90
70726;DHT22;58304;53.104;6.022;2023-02-12T09:44:57;7.80;99.90
70726;DHT22;58304;53.104;6.022;2023-02-12T09:47:38;7.80;99.90
70726;DHT22;58304;53.104;6.022;2023-02-12T09:52:58;8.00;99.90
70726;DHT22;58304;53.104;6.022;2023-02-12T09:55:30;8.10;99.90
70726;DHT22;58304;53.104;6.022;2023-02-12T09:57:56;8.20;99.90
70726;DHT22;58304;53.104;6.022;2023-02-12T10:00:26;8.20;99.90
70726;DHT22;58304;53.104;6.022;2023-02-12T10:02:59;8.30;99.90
70726;DHT22;58304;53.104;6.022;2023-02-12T10:05:31;8.30;99.90
70726;DHT22;58304;53.104;6.022;2023-02-12T10:14:04;8.40;99.90
70726;DHT22;58304;53.104;6.022;2023-02-12T10:25:40;8.60;99.90
70726;DHT22;58304;53.104;6.022;2023-02-12T10:28:12;8.70;99.90
70726;DHT22;58304;53.104;6.022;2023-02-12T10:33:06;8.80;99.90
70726;DHT22;58304;53.104;6.022;2023-02-12T10:35:32;8.80;99.90
70726;DHT22;58304;53.104;6.022;2023-02-12T10:38:06;8.90;99.90
70726;DHT22;58304;53.104;6.022;2023-02-12T10:40:39;9.00;99.90
70726;DHT22;58304;53.104;6.022;2023-02-12T10:43:11;9.10;99.90
70726;DHT22;58304;53.104;6.022;2023-02-12T10:45:39;9.20;99.90
70726;DHT22;58304;53.104;6.022;2023-02-12T10:48:16;9.40;99.90
70726;DHT22;58304;53.104;6.022;2023-02-12T10:53:44;9.60;99.90
70726;DHT22;58304;53.104;6.022;2023-02-12T10:56:21;9.60;99.90
70726;DHT22;58304;53.104;6.022;2023-02-12T11:01:15;9.60;99.90
70726;DHT22;58304;53.104;6.022;2023-02-12T11:03:42;9.50;99.90
70726;DHT22;58304;53.104;6.022;2023-02-12T11:06:11;9.40;99.90
70726;DHT22;58304;53.104;6.022;2023-02-12T11:08:37;9.40;99.90
70726;DHT22;58304;53.104;6.022;2023-02-12T11:11:19;9.40;99.90
70726;DHT22;58304;53.104;6.022;2023-02-12T11:13:56;9.30;99.90
70726;DHT22;58304;53.104;6.022;2023-02-12T11:16:33;9.30;99.90
70726;DHT22;58304;53.104;6.022;2023-02-12T11:19:05;9.20;99.90
70726;DHT22;58304;53.104;6.022;2023-02-12T11:21:32;9.20;99.90
70726;DHT22;58304;53.104;6.022;2023-02-12T11:26:50;9.20;99.90
70726;DHT22;58304;53.104;6.022;2023-02-12T11:29:20;9.10;99.90
70726;DHT22;58304;53.104;6.022;2023-02-12T11:32:00;9.10;99.90
70726;DHT22;58304;53.104;6.022;2023-02-12T11:34:26;9.10;99.90
70726;DHT22;58304;53.104;6.022;2023-02-12T11:36:52;9.10;99.90
70726;DHT22;58304;53.104;6.022;2023-02-12T11:39:35;9.10;99.90
70726;DHT22;58304;53.104;6.022;2023-02-12T11:42:16;9.10;99.90
70726;DHT22;58304;53.104;6.022;2023-02-12T11:45:03;9.10;99.90
70726;DHT22;58304;53.104;6.022;2023-02-12T11:47:33;9.10;99.90
70726;DHT22;58304;53.104;6.022;2023-02-12T11:52:48;9.10;99.90
70726;DHT22;58304;53.104;6.022;2023-02-12T11:55:21;9.10;99.90
70726;DHT22;58304;53.104;6.022;2023-02-12T11:57:50;9.10;99.90
70726;DHT22;58304;53.104;6.022;2023-02-12T12:03:14;9.20;99.90
70726;DHT22;58304;53.104;6.022;2023-02-12T12:05:47;9.30;99.90
70726;DHT22;58304;53.104;6.022;2023-02-12T12:08:24;9.40;99.90
70726;DHT22;58304;53.104;6.022;2023-02-12T12:11:15;9.40;99.90
70726;DHT22;58304;53.104;6.022;2023-02-12T12:14:11;9.40;99.90
70726;DHT22;58304;53.104;6.022;2023-02-12T12:19:57;9.50;99.90
70726;DHT22;58304;53.104;6.022;2023-02-12T12:25:27;9.40;99.90
70726;DHT22;58304;53.104;6.022;2023-02-12T12:28:00;9.30;99.90
70726;DHT22;58304;53.104;6.022;2023-02-12T12:30:52;9.20;99.90
70726;DHT22;58304;53.104;6.022;2023-02-12T12:36:44;9.10;99.90
70726;DHT22;58304;53.104;6.022;2023-02-12T12:39:31;9.10;99.90
70726;DHT22;58304;53.104;6.022;2023-02-12T12:55:53;9.10;99.90
70726;DHT22;58304;53.104;6.022;2023-02-12T13:01:48;9.10;99.90
70726;DHT22;58304;53.104;6.022;2023-02-12T13:15:40;9.00;99.90
70726;DHT22;58304;53.104;6.022;2023-02-12T13:23:03;9.00;99.90
70726;DHT22;58304;53.104;6.022;2023-02-12T13:25:49;9.00;99.90
70726;DHT22;58304;53.104;6.022;2023-02-12T13:28:38;9.10;99.90
70726;DHT22;58304;53.104;6.022;2023-02-12T13:31:08;9.10;99.90
70726;DHT22;58304;53.104;6.022;2023-02-12T13:33:44;9.10;99.90
70726;DHT22;58304;53.104;6.022;2023-02-12T13:36:12;9.10;99.90
70726;DHT22;58304;53.104;6.022;2023-02-12T13:39:11;9.20;99.90
70726;DHT22;58304;53.104;6.022;2023-02-12T13:41:46;9.10;99.90
70726;DHT22;58304;53.104;6.022;2023-02-12T13:46:58;9.00;99.90
70726;DHT22;58304;53.104;6.022;2023-02-12T13:49:48;9.00;99.90
70726;DHT22;58304;53.104;6.022;2023-02-12T13:52:53;9.00;99.90
70726;DHT22;58304;53.104;6.022;2023-02-12T14:03:30;9.00;99.90
70726;DHT22;58304;53.104;6.022;2023-02-12T14:06:17;9.00;99.90
70726;DHT22;58304;53.104;6.022;2023-02-12T14:08:49;9.00;99.90
70726;DHT22;58304;53.104;6.022;2023-02-12T14:11:21;9.00;99.90
70726;DHT22;58304;53.104;6.022;2023-02-12T14:13:55;8.90;99.90
70726;DHT22;58304;53.104;6.022;2023-02-12T14:16:36;8.90;99.90
70726;DHT22;58304;53.104;6.022;2023-02-12T14:22:11;8.80;99.90
70726;DHT22;58304;53.104;6.022;2023-02-12T14:24:45;8.90;99.90
70726;DHT22;58304;53.104;6.022;2023-02-12T14:27:28;8.80;99.90
70726;DHT22;58304;53.104;6.022;2023-02-12T14:30:02;8.80;99.90
70726;DHT22;58304;53.104;6.022;2023-02-12T14:37:56;8.70;99.90
70726;DHT22;58304;53.104;6.022;2023-02-12T14:43:29;8.60;99.90
70726;DHT22;58304;53.104;6.022;2023-02-12T14:48:56;8.60;99.90
70726;DHT22;58304;53.104;6.022;2023-02-12T14:51:54;8.60;99.90
70726;DHT22;58304;53.104;6.022;2023-02-12T14:54:55;8.60;99.90
70726;DHT22;58304;53.104;6.022;2023-02-12T14:57:34;8.60;99.90
70726;DHT22;58304;53.104;6.022;2023-02-12T15:02:44;8.60;99.90
70726;DHT22;58304;53.104;6.022;2023-02-12T15:05:23;8.60;99.90
70726;DHT22;58304;53.104;6.022;2023-02-12T15:07:54;8.60;99.90
70726;DHT22;58304;53.104;6.022;2023-02-12T15:10:28;8.60;99.90
70726;DHT22;58304;53.104;6.022;2023-02-12T15:15:42;8.50;99.90
70726;DHT22;58304;53.104;6.022;2023-02-12T15:18:19;8.50;99.90
70726;DHT22;58304;53.104;6.022;2023-02-12T15:21:17;8.50;99.90
70726;DHT22;58304;53.104;6.022;2023-02-12T15:23:44;8.50;99.90
70726;DHT22;58304;53.104;6.022;2023-02-12T15:26:19;8.40;99.90
70726;DHT22;58304;53.104;6.022;2023-02-12T15:28:49;8.40;99.90
70726;DHT22;58304;53.104;6.022;2023-02-12T15:31:18;8.40;99.90
70726;DHT22;58304;53.104;6.022;2023-02-12T15:33:47;8.40;99.90
70726;DHT22;58304;53.104;6.022;2023-02-12T15:36:24;8.40;99.90
70726;DHT22;58304;53.104;6.022;2023-02-12T15:39:02;8.30;99.90
70726;DHT22;58304;53.104;6.022;2023-02-12T15:41:36;8.30;99.90
70726;DHT22;58304;53.104;6.022;2023-02-12T15:46:52;8.20;99.90
70726;DHT22;58304;53.104;6.022;2023-02-12T15:49:19;8.20;99.90
70726;DHT22;58304;53.104;6.022;2023-02-12T15:51:46;8.20;99.90
70726;DHT22;58304;53.104;6.022;2023-02-12T15:54:12;8.20;99.90
70726;DHT22;58304;53.104;6.022;2023-02-12T15:56:40;8.10;99.90
70726;DHT22;58304;53.104;6.022;2023-02-12T15:59:06;8.10;99.90
70726;DHT22;58304;53.104;6.022;2023-02-12T16:01:32;8.10;99.90
70726;DHT22;58304;53.104;6.022;2023-02-12T16:04:01;8.00;99.90
70726;DHT22;58304;53.104;6.022;2023-02-12T16:06:30;8.00;99.90
70726;DHT22;58304;53.104;6.022;2023-02-12T16:09:08;8.00;99.90
70726;DHT22;58304;53.104;6.022;2023-02-12T16:11:38;8.00;99.90
70726;DHT22;58304;53.104;6.022;2023-02-12T16:14:07;7.90;99.90
70726;DHT22;58304;53.104;6.022;2023-02-12T16:16:48;7.90;99.90
70726;DHT22;58304;53.104;6.022;2023-02-12T16:19:21;7.90;99.90
70726;DHT22;58304;53.104;6.022;2023-02-12T16:22:11;7.80;99.90
70726;DHT22;58304;53.104;6.022;2023-02-12T16:24:37;7.80;99.90
70726;DHT22;58304;53.104;6.022;2023-02-12T16:27:18;7.80;99.90
70726;DHT22;58304;53.104;6.022;2023-02-12T16:29:51;7.80;99.90
70726;DHT22;58304;53.104;6.022;2023-02-12T16:32:34;7.80;99.90
70726;DHT22;58304;53.104;6.022;2023-02-12T16:35:04;7.70;99.90
70726;DHT22;58304;53.104;6.022;2023-02-12T16:42:55;7.70;99.90
70726;DHT22;58304;53.104;6.022;2023-02-12T16:48:01;7.60;99.90
70726;DHT22;58304;53.104;6.022;2023-02-12T16:50:30;7.60;99.90
70726;DHT22;58304;53.104;6.022;2023-02-12T16:53:02;7.60;99.90
70726;DHT22;58304;53.104;6.022;2023-02-12T16:55:28;7.50;99.90
70726;DHT22;58304;53.104;6.022;2023-02-12T16:57:53;7.50;99.90
70726;DHT22;58304;53.104;6.022;2023-02-12T17:00:19;7.40;99.90
70726;DHT22;58304;53.104;6.022;2023-02-12T17:02:45;7.40;99.90
70726;DHT22;58304;53.104;6.022;2023-02-12T17:05:13;7.40;99.90
70726;DHT22;58304;53.104;6.022;2023-02-12T17:07:41;7.40;99.90
70726;DHT22;58304;53.104;6.022;2023-02-12T17:10:12;7.40;99.90
70726;DHT22;58304;53.104;6.022;2023-02-12T17:12:48;7.30;99.90
70726;DHT22;58304;53.104;6.022;2023-02-12T17:15:29;7.40;99.90
70726;DHT22;58304;53.104;6.022;2023-02-12T17:17:57;7.30;99.90
70726;DHT22;58304;53.104;6.022;2023-02-12T17:20:22;7.30;99.90
70726;DHT22;58304;53.104;6.022;2023-02-12T17:22:50;7.30;99.90
70726;DHT22;58304;53.104;6.022;2023-02-12T17:25:17;7.30;99.90
70726;DHT22;58304;53.104;6.022;2023-02-12T17:27:42;7.20;99.90
70726;DHT22;58304;53.104;6.022;2023-02-12T17:30:13;7.20;99.90
70726;DHT22;58304;53.104;6.022;2023-02-12T17:32:39;7.20;99.90
70726;DHT22;58304;53.104;6.022;2023-02-12T17:35:04;7.20;99.90
70726;DHT22;58304;53.104;6.022;2023-02-12T17:37:31;7.20;99.90
70726;DHT22;58304;53.104;6.022;2023-02-12T17:39:56;7.20;99.90
70726;DHT22;58304;53.104;6.022;2023-02-12T17:42:22;7.20;99.90
70726;DHT22;58304;53.104;6.022;2023-02-12T17:44:47;7.10;99.90
70726;DHT22;58304;53.104;6.022;2023-02-12T17:47:13;7.10;99.90
70726;DHT22;58304;53.104;6.022;2023-02-12T17:49:38;7.10;99.90
70726;DHT22;58304;53.104;6.022;2023-02-12T17:52:04;7.10;99.90
70726;DHT22;58304;53.104;6.022;2023-02-12T17:54:30;7.10;99.90
70726;DHT22;58304;53.104;6.022;2023-02-12T17:56:55;7.10;99.90
70726;DHT22;58304;53.104;6.022;2023-02-12T17:59:24;7.10;99.90
70726;DHT22;58304;53.104;6.022;2023-02-12T18:01:50;7.00;99.90
70726;DHT22;58304;53.104;6.022;2023-02-12T18:04:16;7.00;99.90
70726;DHT22;58304;53.104;6.022;2023-02-12T18:06:41;7.00;99.90
70726;DHT22;58304;53.104;6.022;2023-02-12T18:09:07;7.00;99.90
70726;DHT22;58304;53.104;6.022;2023-02-12T18:11:32;7.00;99.90
70726;DHT22;58304;53.104;6.022;2023-02-12T18:13:58;7.00;99.90
70726;DHT22;58304;53.104;6.022;2023-02-12T18:16:27;7.00;99.90
70726;DHT22;58304;53.104;6.022;2023-02-12T18:18:53;6.90;99.90
70726;DHT22;58304;53.104;6.022;2023-02-12T18:21:19;6.90;99.90
70726;DHT22;58304;53.104;6.022;2023-02-12T18:23:45;7.00;99.90
70726;DHT22;58304;53.104;6.022;2023-02-12T18:26:14;7.00;99.90
70726;DHT22;58304;53.104;6.022;2023-02-12T18:28:40;6.90;99.90
70726;DHT22;58304;53.104;6.022;2023-02-12T18:31:06;6.90;99.90
70726;DHT22;58304;53.104;6.022;2023-02-12T18:33:32;6.90;99.90
70726;DHT22;58304;53.104;6.022;2023-02-12T18:36:18;6.80;99.90
70726;DHT22;58304;53.104;6.022;2023-02-12T18:38:47;6.90;99.90